createdAt,value
2022-08-08T00:02:04.194Z,15.45
2022-08-08T00:04:49.022Z,14.52
2022-08-08T00:07:28.786Z,15.20
2022-08-08T00:10:10.528Z,14.90
2022-08-08T00:12:56.503Z,15.07
2022-08-08T00:18:27.432Z,14.57
2022-08-08T00:20:58.622Z,15.85
2022-08-08T00:23:43.392Z,15.48
2022-08-08T00:26:30.058Z,16.58
2022-08-08T00:29:11.040Z,17.13
2022-08-08T00:32:29.240Z,17.52
2022-08-08T00:35:18.299Z,17.02
2022-08-08T00:38:02.314Z,17.27
2022-08-08T00:41:11.327Z,16.45
2022-08-08T00:43:46.353Z,15.57
2022-08-08T00:46:55.852Z,14.35
2022-08-08T00:49:39.230Z,14.75
2022-08-08T00:52:34.716Z,14.77
2022-08-08T00:55:35.727Z,13.18
2022-08-08T00:58:54.065Z,14.85
2022-08-08T01:01:38.380Z,13.20
2022-08-08T01:04:42.048Z,14.10
2022-08-08T01:07:54.912Z,13.70
2022-08-08T01:10:45.258Z,14.00
2022-08-08T01:13:52.797Z,13.07
2022-08-08T01:16:37.183Z,12.65
2022-08-08T01:19:52.005Z,13.48
2022-08-08T01:22:34.875Z,12.52
2022-08-08T01:25:40.688Z,14.18
2022-08-08T01:28:34.377Z,15.52
2022-08-08T01:32:06.850Z,18.25
2022-08-08T01:35:11.436Z,20.52
2022-08-08T01:38:07.316Z,20.88
2022-08-08T01:40:54.212Z,21.95
2022-08-08T01:43:42.909Z,23.10
2022-08-08T01:46:27.847Z,21.95
2022-08-08T01:49:22.950Z,20.70
2022-08-08T01:52:44.251Z,18.77
2022-08-08T01:55:44.953Z,18.35
2022-08-08T01:58:10.728Z,21.27
2022-08-08T02:00:57.340Z,19.27
2022-08-08T02:03:55.404Z,21.13
2022-08-08T02:06:32.391Z,22.45
2022-08-08T02:10:01.273Z,23.60
2022-08-08T02:12:37.164Z,21.70
2022-08-08T02:15:34.743Z,23.50
2022-08-08T02:18:21.240Z,23.92
2022-08-08T02:21:18.058Z,22.02
2022-08-08T02:23:57.912Z,21.67
2022-08-08T02:26:43.437Z,20.05
2022-08-08T02:32:40.457Z,21.75
2022-08-08T02:36:04.547Z,18.63
2022-08-08T02:39:01.614Z,18.30
2022-08-08T02:42:38.485Z,18.50
2022-08-08T02:45:23.447Z,19.15
2022-08-08T02:48:15.957Z,20.33
2022-08-08T02:51:02.875Z,22.60
2022-08-08T02:53:53.507Z,21.05
2022-08-08T02:56:35.354Z,22.02
2022-08-08T02:59:25.798Z,22.52
2022-08-08T03:02:30.368Z,21.00
2022-08-08T03:05:45.259Z,21.02
2022-08-08T03:08:27.928Z,20.48
2022-08-08T03:12:01.912Z,21.52
2022-08-08T03:15:58.740Z,20.02
2022-08-08T03:17:41.406Z,21.63
2022-08-08T03:20:10.608Z,22.65
2022-08-08T03:22:57.039Z,22.70
2022-08-08T03:25:35.827Z,21.83
2022-08-08T03:28:07.727Z,24.02
2022-08-08T03:30:34.693Z,22.70
2022-08-08T03:33:54.826Z,24.42
2022-08-08T03:36:16.057Z,23.45
2022-08-08T03:38:56.482Z,26.27
2022-08-08T03:42:04.160Z,26.80
2022-08-08T03:44:20.514Z,28.08
2022-08-08T03:46:52.217Z,30.05
2022-08-08T03:49:57.850Z,34.15
2022-08-08T03:52:13.250Z,33.08
2022-08-08T03:55:02.000Z,34.67
2022-08-08T03:58:30.600Z,34.55
2022-08-08T04:00:19.675Z,38.60
2022-08-08T04:03:11.759Z,39.88
2022-08-08T04:05:39.803Z,43.00
2022-08-08T04:08:32.946Z,43.55
2022-08-08T04:11:10.933Z,40.30
2022-08-08T04:14:03.190Z,39.25
2022-08-08T04:16:40.236Z,36.67
2022-08-08T04:19:23.347Z,39.75
2022-08-08T04:21:50.954Z,41.80
2022-08-08T04:24:28.223Z,42.30
2022-08-08T04:26:58.011Z,43.83
2022-08-08T04:29:25.545Z,44.45
2022-08-08T04:31:58.353Z,48.83
2022-08-08T04:36:59.131Z,37.45
2022-08-08T04:40:04.198Z,45.42
2022-08-08T04:42:15.618Z,47.28
2022-08-08T04:44:42.583Z,47.38
2022-08-08T04:47:14.783Z,47.45
2022-08-08T04:50:00.949Z,47.53
2022-08-08T04:52:33.918Z,41.97
2022-08-08T04:55:01.871Z,35.45
2022-08-08T04:57:28.721Z,39.97
2022-08-08T04:59:55.472Z,38.35
2022-08-08T05:02:28.621Z,42.65
2022-08-08T05:04:59.361Z,46.22
2022-08-08T05:07:26.974Z,55.10
2022-08-08T05:10:05.323Z,46.50
2022-08-08T05:12:36.759Z,42.95
2022-08-08T05:15:04.499Z,40.83
2022-08-08T05:17:53.806Z,40.55
2022-08-08T05:20:18.269Z,38.40
2022-08-08T05:22:44.763Z,37.15
2022-08-08T05:25:11.234Z,39.13
2022-08-08T05:27:41.628Z,37.22
2022-08-08T05:30:11.245Z,38.08
2022-08-08T05:32:39.231Z,38.53
2022-08-08T05:35:07.222Z,38.15
2022-08-08T05:37:51.794Z,38.40
2022-08-08T05:40:27.670Z,36.13
2022-08-08T05:43:38.379Z,38.45
2022-08-08T05:46:11.449Z,37.10
2022-08-08T05:48:38.788Z,37.58
2022-08-08T05:51:14.772Z,36.35
2022-08-08T05:54:26.106Z,37.88
2022-08-08T05:56:36.868Z,38.30
2022-08-08T05:59:12.497Z,37.78
2022-08-08T06:01:56.798Z,40.25
2022-08-08T06:04:26.595Z,40.10
2022-08-08T06:07:01.619Z,39.42
2022-08-08T06:10:00.215Z,38.92
2022-08-08T06:12:30.421Z,39.38
2022-08-08T06:15:03.141Z,38.88
2022-08-08T06:18:18.775Z,39.78
2022-08-08T06:20:20.921Z,42.53
2022-08-08T06:22:49.290Z,40.15
2022-08-08T06:25:17.955Z,37.30
2022-08-08T06:27:58.362Z,42.13
2022-08-08T06:30:28.211Z,42.40
2022-08-08T06:32:58.238Z,44.25
2022-08-08T06:36:06.220Z,48.65
2022-08-08T06:38:25.067Z,48.80
2022-08-08T06:41:04.810Z,49.88
2022-08-08T06:43:36.700Z,52.15
2022-08-08T06:46:04.827Z,54.80
2022-08-08T06:48:36.270Z,56.30
2022-08-08T06:51:08.472Z,55.60
2022-08-08T06:53:39.922Z,50.60
2022-08-08T06:56:09.158Z,47.05
2022-08-08T06:58:37.051Z,49.50
2022-08-08T07:01:52.624Z,49.88
2022-08-08T07:04:38.732Z,45.22
2022-08-08T07:07:10.621Z,40.08
2022-08-08T07:10:00.370Z,44.70
2022-08-08T07:12:43.875Z,45.17
2022-08-08T07:15:32.595Z,48.22
2022-08-08T07:18:36.725Z,53.28
2022-08-08T07:21:02.109Z,49.20
2022-08-08T07:24:01.005Z,42.90
2022-08-08T07:26:35.993Z,40.63
2022-08-08T07:29:05.742Z,41.70
2022-08-08T07:31:35.889Z,40.15
2022-08-08T07:34:08.978Z,37.85
2022-08-08T07:36:41.903Z,29.63
2022-08-08T07:39:18.232Z,30.80
2022-08-08T07:42:04.411Z,30.50
2022-08-08T07:45:02.515Z,28.70
2022-08-08T07:47:39.159Z,26.27
2022-08-08T07:50:06.751Z,29.20
2022-08-08T07:52:35.843Z,26.45
2022-08-08T07:55:17.203Z,26.15
2022-08-08T07:58:05.290Z,30.40
2022-08-08T08:00:52.869Z,26.73
2022-08-08T08:03:43.314Z,24.08
2022-08-08T08:06:12.490Z,21.80
2022-08-08T08:08:52.188Z,21.20
2022-08-08T08:11:21.481Z,23.65
2022-08-08T08:14:09.732Z,22.92
2022-08-08T08:16:41.086Z,20.88
2022-08-08T08:19:15.031Z,24.38
2022-08-08T08:21:53.372Z,21.02
2022-08-08T08:24:30.694Z,21.83
2022-08-08T08:26:58.456Z,22.40
2022-08-08T08:29:27.709Z,23.13
2022-08-08T08:31:57.884Z,24.08
2022-08-08T08:34:32.804Z,24.83
2022-08-08T08:37:08.109Z,22.98
2022-08-08T08:39:59.690Z,23.73
2022-08-08T08:42:35.104Z,25.02
2022-08-08T08:45:20.813Z,22.23
2022-08-08T08:47:53.196Z,23.40
2022-08-08T08:50:33.718Z,25.58
2022-08-08T08:53:27.170Z,25.92
2022-08-08T08:55:54.083Z,22.00
2022-08-08T08:58:30.313Z,27.45
2022-08-08T09:01:09.070Z,20.83
2022-08-08T09:03:45.886Z,27.35
2022-08-08T09:06:28.485Z,27.70
2022-08-08T09:09:37.520Z,25.77
2022-08-08T09:12:08.002Z,20.98
2022-08-08T09:14:35.576Z,19.30
2022-08-08T09:17:14.262Z,16.73
2022-08-08T09:22:01.960Z,12.25
2022-08-08T09:22:31.739Z,12.70
2022-08-08T09:24:58.632Z,14.10
2022-08-08T09:27:41.884Z,12.07
2022-08-08T09:30:17.725Z,10.90
2022-08-08T09:34:14.817Z,10.18
2022-08-08T09:36:39.357Z,11.00
2022-08-08T09:39:15.626Z,12.18
2022-08-08T09:42:20.001Z,12.07
2022-08-08T09:45:15.726Z,14.82
2022-08-08T09:48:04.129Z,13.70
2022-08-08T09:50:43.992Z,12.27
2022-08-08T09:53:24.864Z,12.00
2022-08-08T09:56:11.663Z,11.48
2022-08-08T09:58:45.283Z,12.38
2022-08-08T10:01:59.214Z,12.65
2022-08-08T10:04:14.266Z,12.80
2022-08-08T10:06:45.134Z,11.63
2022-08-08T10:09:13.454Z,12.25
2022-08-08T10:12:27.746Z,14.27
2022-08-08T10:14:39.194Z,17.77
2022-08-08T10:17:56.671Z,18.30
2022-08-08T10:20:00.183Z,20.00
2022-08-08T10:22:32.304Z,17.90
2022-08-08T10:25:05.809Z,14.18
2022-08-08T10:27:43.285Z,13.15
2022-08-08T10:30:16.722Z,12.52
2022-08-08T10:33:00.342Z,13.27
2022-08-08T10:36:07.314Z,13.32
2022-08-08T10:38:19.571Z,14.57
2022-08-08T10:40:51.146Z,16.10
2022-08-08T10:43:18.601Z,15.13
2022-08-08T10:45:55.871Z,13.50
2022-08-08T10:48:37.379Z,13.95
2022-08-08T10:51:20.138Z,11.77
2022-08-08T10:53:56.607Z,12.48
2022-08-08T10:56:27.909Z,11.93
2022-08-08T10:59:09.565Z,11.13
2022-08-08T11:01:41.808Z,11.20
2022-08-08T11:04:10.538Z,11.48
2022-08-08T11:06:41.321Z,14.77
2022-08-08T11:09:19.330Z,17.10
2022-08-08T11:12:06.158Z,16.48
2022-08-08T11:14:33.676Z,16.23
2022-08-08T11:17:02.982Z,15.52
2022-08-08T11:19:33.556Z,14.10
2022-08-08T11:22:01.305Z,13.35
2022-08-08T11:24:34.077Z,12.50
2022-08-08T11:27:10.561Z,10.68
2022-08-08T11:30:04.222Z,10.63
2022-08-08T11:32:40.883Z,10.98
2022-08-08T11:35:27.554Z,11.20
2022-08-08T11:38:36.446Z,11.55
2022-08-08T11:40:52.387Z,12.15
2022-08-08T11:43:20.223Z,12.50
2022-08-08T11:46:09.727Z,11.80
2022-08-08T11:48:38.487Z,10.30
2022-08-08T11:51:30.215Z,11.77
2022-08-08T11:53:55.196Z,11.07
2022-08-08T11:56:25.807Z,10.10
2022-08-08T11:58:54.181Z,10.35
2022-08-08T12:01:31.854Z,10.38
2022-08-08T12:04:04.005Z,10.52
2022-08-08T12:06:32.658Z,10.65
2022-08-08T12:09:09.716Z,9.98
2022-08-08T12:11:46.169Z,10.98
2022-08-08T12:14:29.016Z,12.15
2022-08-08T12:16:57.031Z,12.68
2022-08-08T12:19:37.540Z,11.50
2022-08-08T12:22:13.868Z,10.50
2022-08-08T12:24:53.935Z,11.80
2022-08-08T12:27:26.362Z,11.50
2022-08-08T12:29:56.363Z,11.20
2022-08-08T12:32:23.244Z,14.43
2022-08-08T12:35:04.578Z,13.18
2022-08-08T12:38:01.257Z,12.63
2022-08-08T12:40:56.891Z,11.50
2022-08-08T12:43:43.342Z,12.20
2022-08-08T12:46:19.049Z,10.85
2022-08-08T12:49:25.079Z,10.63
2022-08-08T12:51:58.417Z,10.57
2022-08-08T12:54:37.957Z,11.32
2022-08-08T12:57:17.160Z,10.27
2022-08-08T13:00:03.313Z,8.98
2022-08-08T13:02:36.000Z,12.40
2022-08-08T13:05:26.843Z,12.55
2022-08-08T13:08:18.482Z,12.23
2022-08-08T13:10:56.173Z,11.77
2022-08-08T13:13:35.522Z,9.98
2022-08-08T13:16:25.732Z,10.05
2022-08-08T13:19:00.436Z,9.23
2022-08-08T13:21:48.890Z,8.70
2022-08-08T13:24:18.817Z,8.13
2022-08-08T13:27:05.105Z,7.53
2022-08-08T13:29:47.221Z,9.05
2022-08-08T13:32:13.742Z,7.57
2022-08-08T13:34:41.861Z,8.75
2022-08-08T13:37:10.927Z,8.05
2022-08-08T13:39:51.095Z,7.15
2022-08-08T13:42:18.343Z,8.07
2022-08-08T13:44:53.708Z,13.40
2022-08-08T13:47:20.161Z,10.63
2022-08-08T13:50:35.589Z,11.65
2022-08-08T13:52:48.617Z,16.77
2022-08-08T13:55:28.070Z,15.27
2022-08-08T13:58:08.241Z,16.13
2022-08-08T14:00:40.648Z,15.55
2022-08-08T14:03:53.648Z,15.27
2022-08-08T14:06:32.101Z,11.35
2022-08-08T14:08:57.948Z,10.35
2022-08-08T14:11:27.962Z,10.27
2022-08-08T14:13:59.470Z,11.07
2022-08-08T14:16:27.674Z,10.25
2022-08-08T14:18:58.729Z,12.35
2022-08-08T14:21:49.037Z,13.23
2022-08-08T14:24:33.512Z,11.65
2022-08-08T14:27:01.646Z,12.27
2022-08-08T14:29:39.168Z,12.68
2022-08-08T14:32:14.142Z,11.60
2022-08-08T14:34:50.297Z,15.85
2022-08-08T14:37:18.105Z,13.38
2022-08-08T14:40:06.505Z,11.60
2022-08-08T14:42:55.073Z,11.38
2022-08-08T14:45:33.496Z,11.02
2022-08-08T14:48:16.524Z,14.48
2022-08-08T14:51:04.424Z,16.40
2022-08-08T14:53:54.908Z,14.68
2022-08-08T14:56:24.869Z,13.50
2022-08-08T14:58:51.768Z,14.15
2022-08-08T15:01:23.798Z,14.52
2022-08-08T15:03:53.605Z,13.88
2022-08-08T15:09:04.190Z,15.05
2022-08-08T15:11:39.400Z,16.00
2022-08-08T15:14:14.327Z,16.30
2022-08-08T15:16:42.584Z,17.20
2022-08-08T15:19:10.686Z,16.60
2022-08-08T15:21:37.878Z,16.60
2022-08-08T15:24:13.668Z,14.25
2022-08-08T15:26:41.540Z,15.85
2022-08-08T15:29:08.117Z,15.60
2022-08-08T15:32:17.391Z,15.40
2022-08-08T15:34:47.619Z,15.77
2022-08-08T15:37:14.043Z,14.30
2022-08-08T15:39:40.554Z,13.98
2022-08-08T15:42:10.243Z,13.02
2022-08-08T15:44:37.649Z,13.98
2022-08-08T15:47:07.127Z,13.88
2022-08-08T15:49:43.830Z,12.70
2022-08-08T15:52:13.375Z,15.27
2022-08-08T15:54:47.823Z,15.23
2022-08-08T15:57:15.540Z,14.38
2022-08-08T16:00:25.232Z,15.18
2022-08-08T16:02:31.015Z,14.45
2022-08-08T16:05:01.498Z,16.13
2022-08-08T16:07:51.933Z,15.48
2022-08-08T16:13:11.081Z,15.60
2022-08-08T16:13:34.352Z,15.68
2022-08-08T16:15:58.207Z,16.05
2022-08-08T16:18:35.824Z,14.63
2022-08-08T16:21:02.432Z,14.23
2022-08-08T16:23:31.727Z,13.73
2022-08-08T16:26:04.059Z,13.70
2022-08-08T16:28:35.969Z,12.52
2022-08-08T16:31:07.752Z,14.05
2022-08-08T16:33:38.616Z,14.80
2022-08-08T16:36:09.782Z,13.70
2022-08-08T16:38:47.441Z,13.80
2022-08-08T16:41:22.433Z,14.15
2022-08-08T16:43:50.888Z,13.10
2022-08-08T16:46:36.542Z,11.95
2022-08-08T16:49:05.938Z,11.40
2022-08-08T16:55:02.366Z,10.85
2022-08-08T16:55:18.132Z,11.13
2022-08-08T16:58:13.383Z,12.38
2022-08-08T16:59:57.963Z,15.48
2022-08-08T17:02:41.879Z,17.17
2022-08-08T17:05:12.867Z,17.27
2022-08-08T17:07:40.529Z,18.20
2022-08-08T17:10:08.914Z,18.35
2022-08-08T17:12:36.769Z,15.40
2022-08-08T17:15:17.634Z,14.20
2022-08-08T17:18:02.541Z,13.27
2022-08-08T17:20:30.937Z,15.45
2022-08-08T17:23:16.568Z,16.88
2022-08-08T17:25:52.241Z,17.33
2022-08-08T17:47:09.434Z,9.07
2022-08-08T17:49:43.474Z,8.05
2022-08-08T17:52:23.051Z,7.68
2022-08-08T17:54:56.191Z,8.43
2022-08-08T18:06:43.041Z,7.30
2022-08-08T18:09:14.673Z,9.70
2022-08-08T18:11:43.974Z,10.35
2022-08-08T18:14:21.687Z,11.15
2022-08-08T18:16:54.441Z,13.57
2022-08-08T18:19:25.274Z,14.10
2022-08-08T18:22:01.633Z,16.30
2022-08-08T18:24:30.199Z,14.57
2022-08-08T18:26:58.969Z,14.13
2022-08-08T18:29:36.012Z,13.48
2022-08-08T18:32:05.414Z,13.10
2022-08-08T18:34:36.162Z,12.10
2022-08-08T18:37:08.057Z,12.23
2022-08-08T18:39:37.212Z,13.73
2022-08-08T18:42:09.129Z,12.13
2022-08-08T18:44:41.661Z,10.80
2022-08-08T18:47:08.069Z,10.98
2022-08-08T18:49:41.089Z,11.32
2022-08-08T18:52:22.285Z,10.98
2022-08-08T18:55:00.779Z,13.48
2022-08-08T18:57:41.176Z,11.75
2022-08-08T19:00:15.783Z,10.98
2022-08-08T19:02:55.272Z,11.10
2022-08-08T19:05:32.070Z,11.07
2022-08-08T19:08:07.850Z,11.75
2022-08-08T19:10:34.537Z,11.68
2022-08-08T19:13:01.620Z,11.57
2022-08-08T19:15:33.902Z,11.35
2022-08-08T19:18:33.276Z,11.93
2022-08-08T19:20:57.449Z,12.20
2022-08-08T19:23:23.889Z,13.07
2022-08-08T19:26:20.019Z,14.05
2022-08-08T19:28:39.245Z,14.13
2022-08-08T19:31:09.372Z,13.80
2022-08-08T19:33:51.737Z,13.00
2022-08-08T19:36:27.374Z,13.55
2022-08-08T19:38:54.349Z,14.32
2022-08-08T19:41:21.489Z,13.88
2022-08-08T19:44:02.366Z,14.40
2022-08-08T19:46:33.232Z,14.00
2022-08-08T19:49:00.648Z,14.25
2022-08-08T19:51:34.142Z,15.52
2022-08-08T19:56:40.033Z,13.27
2022-08-08T19:59:11.799Z,13.18
2022-08-08T20:02:01.335Z,12.38
2022-08-08T20:04:27.774Z,12.52
2022-08-08T20:06:56.939Z,14.98
2022-08-08T20:09:24.721Z,12.07
2022-08-08T20:11:52.122Z,15.55
2022-08-08T20:14:34.602Z,13.13
2022-08-08T20:17:02.551Z,14.27
2022-08-08T20:19:33.465Z,14.25
2022-08-08T20:22:20.926Z,15.98
2022-08-08T20:25:01.501Z,16.35
2022-08-08T20:27:43.592Z,18.02
2022-08-08T20:30:52.863Z,18.60
2022-08-08T20:33:01.724Z,19.58
2022-08-08T20:35:32.889Z,20.50
2022-08-08T20:38:15.095Z,19.27
2022-08-08T20:40:47.380Z,18.20
2022-08-08T20:43:42.917Z,17.95
2022-08-08T20:46:04.145Z,18.25
2022-08-08T20:56:07.268Z,16.02
2022-08-08T20:59:00.551Z,16.98
2022-08-08T21:02:05.348Z,15.40
2022-08-08T21:08:00.844Z,15.27
2022-08-08T21:10:22.182Z,15.82
2022-08-08T21:12:55.111Z,14.30
2022-08-08T21:16:06.370Z,12.25
2022-08-08T21:18:10.250Z,12.43
2022-08-08T21:20:38.406Z,12.80
2022-08-08T21:23:09.142Z,13.23
2022-08-08T21:25:36.711Z,15.32
2022-08-08T21:28:09.249Z,16.30
2022-08-08T21:30:42.517Z,16.90
2022-08-08T21:33:12.010Z,15.65
2022-08-08T21:36:16.190Z,15.88
2022-08-08T21:38:25.914Z,14.57
2022-08-08T21:40:55.844Z,15.90
2022-08-08T21:43:33.350Z,14.00
2022-08-08T21:48:04.361Z,14.90
2022-08-08T21:48:52.706Z,15.40
2022-08-08T21:54:22.739Z,16.40
2022-08-08T21:54:31.997Z,15.40
2022-08-08T21:56:56.242Z,15.80
2022-08-08T21:59:22.879Z,16.75
2022-08-08T22:01:52.504Z,15.82
2022-08-08T22:04:25.391Z,17.15
2022-08-08T22:12:51.151Z,20.65
2022-08-08T22:15:18.528Z,19.08
2022-08-08T22:17:45.957Z,22.25
2022-08-08T22:20:18.872Z,21.48
2022-08-08T22:22:51.025Z,21.77
2022-08-08T22:25:25.207Z,18.85
2022-08-08T22:28:03.512Z,19.33
2022-08-08T22:30:42.391Z,18.85
2022-08-08T22:33:22.234Z,20.35
2022-08-08T22:36:04.327Z,19.05
2022-08-08T22:38:39.274Z,21.50
2022-08-08T22:41:15.994Z,18.90
2022-08-08T22:44:02.972Z,20.13
2022-08-08T22:46:34.202Z,18.27
2022-08-08T22:49:01.801Z,18.13
2022-08-08T22:51:29.454Z,18.30
2022-08-08T22:54:33.849Z,16.95
2022-08-08T22:56:47.884Z,17.73
2022-08-08T22:59:18.511Z,17.90
2022-08-08T23:02:02.443Z,17.80
2022-08-08T23:04:32.059Z,17.23
2022-08-08T23:07:02.833Z,17.60
2022-08-08T23:09:30.523Z,18.30
2022-08-08T23:12:27.458Z,20.85
2022-08-08T23:14:56.166Z,20.30
2022-08-08T23:17:29.926Z,21.33
2022-08-08T23:19:56.617Z,23.85
2022-08-08T23:22:22.995Z,23.15
2022-08-08T23:24:50.787Z,21.63
2022-08-08T23:27:37.684Z,20.70
2022-08-08T23:30:05.541Z,21.17
2022-08-08T23:32:35.822Z,20.45
2022-08-08T23:35:16.967Z,19.23
2022-08-08T23:38:02.222Z,19.00
2022-08-08T23:42:56.787Z,16.20
2022-08-08T23:49:01.799Z,20.70
2022-08-08T23:49:06.340Z,17.50
2022-08-08T23:50:57.009Z,26.02
2022-08-08T23:54:06.455Z,28.55
2022-08-08T23:56:10.377Z,23.67
2022-08-08T23:58:38.951Z,26.60
